sensor_id;sensor_type;location;lat;lon;timestamp;temperature;humidity
1568;DHT22;777;47.156;8.326;2023-08-21T00:02:16;23.70;99.90
1568;DHT22;777;47.156;8.326;2023-08-21T00:04:43;23.70;99.90
1568;DHT22;777;47.156;8.326;2023-08-21T00:07:10;23.70;99.90
1568;DHT22;777;47.156;8.326;2023-08-21T00:09:37;23.70;99.90
1568;DHT22;777;47.156;8.326;2023-08-21T00:12:05;23.70;99.90
1568;DHT22;777;47.156;8.326;2023-08-21T00:14:32;23.70;99.90
1568;DHT22;777;47.156;8.326;2023-08-21T00:17:01;23.70;99.90
1568;DHT22;777;47.156;8.326;2023-08-21T00:19:28;23.70;99.90
1568;DHT22;777;47.156;8.326;2023-08-21T00:21:55;23.60;99.90
1568;DHT22;777;47.156;8.326;2023-08-21T00:24:23;23.70;99.90
1568;DHT22;777;47.156;8.326;2023-08-21T00:26:50;23.70;99.90
1568;DHT22;777;47.156;8.326;2023-08-21T00:29:17;23.70;99.90
1568;DHT22;777;47.156;8.326;2023-08-21T00:31:44;23.50;99.90
1568;DHT22;777;47.156;8.326;2023-08-21T00:34:13;23.50;99.90
1568;DHT22;777;47.156;8.326;2023-08-21T00:36:40;23.60;99.90
1568;DHT22;777;47.156;8.326;2023-08-21T00:39:07;23.70;99.90
1568;DHT22;777;47.156;8.326;2023-08-21T00:41:34;23.70;99.90
1568;DHT22;777;47.156;8.326;2023-08-21T00:44:01;23.70;99.90
1568;DHT22;777;47.156;8.326;2023-08-21T00:46:30;23.70;99.90
1568;DHT22;777;47.156;8.326;2023-08-21T00:48:57;23.50;99.90
1568;DHT22;777;47.156;8.326;2023-08-21T00:51:26;23.50;99.90
1568;DHT22;777;47.156;8.326;2023-08-21T00:53:53;23.40;99.90
1568;DHT22;777;47.156;8.326;2023-08-21T00:56:20;23.30;99.90
1568;DHT22;777;47.156;8.326;2023-08-21T00:58:47;23.30;99.90
1568;DHT22;777;47.156;8.326;2023-08-21T01:01:16;23.30;99.90
1568;DHT22;777;47.156;8.326;2023-08-21T01:03:44;23.30;99.90
1568;DHT22;777;47.156;8.326;2023-08-21T01:06:11;23.20;99.90
1568;DHT22;777;47.156;8.326;2023-08-21T01:08:45;23.20;99.90
1568;DHT22;777;47.156;8.326;2023-08-21T01:11:20;23.10;99.90
1568;DHT22;777;47.156;8.326;2023-08-21T01:13:54;23.10;99.90
1568;DHT22;777;47.156;8.326;2023-08-21T01:16:23;23.00;99.90
1568;DHT22;777;47.156;8.326;2023-08-21T01:18:52;23.00;99.90
1568;DHT22;777;47.156;8.326;2023-08-21T01:21:20;23.00;99.90
1568;DHT22;777;47.156;8.326;2023-08-21T01:23:49;23.00;99.90
1568;DHT22;777;47.156;8.326;2023-08-21T01:26:16;23.00;99.90
1568;DHT22;777;47.156;8.326;2023-08-21T01:28:43;23.00;99.90
1568;DHT22;777;47.156;8.326;2023-08-21T01:31:15;22.90;99.90
1568;DHT22;777;47.156;8.326;2023-08-21T01:33:46;22.80;99.90
1568;DHT22;777;47.156;8.326;2023-08-21T01:36:14;22.80;99.90
1568;DHT22;777;47.156;8.326;2023-08-21T01:38:42;22.80;99.90
1568;DHT22;777;47.156;8.326;2023-08-21T01:41:12;22.70;99.90
1568;DHT22;777;47.156;8.326;2023-08-21T01:43:39;22.70;99.90
1568;DHT22;777;47.156;8.326;2023-08-21T01:46:08;22.70;99.90
1568;DHT22;777;47.156;8.326;2023-08-21T01:48:35;22.70;99.90
1568;DHT22;777;47.156;8.326;2023-08-21T01:51:03;22.70;99.90
1568;DHT22;777;47.156;8.326;2023-08-21T01:53:30;22.70;99.90
1568;DHT22;777;47.156;8.326;2023-08-21T01:55:57;22.60;99.90
1568;DHT22;777;47.156;8.326;2023-08-21T01:58:25;22.60;99.90
1568;DHT22;777;47.156;8.326;2023-08-21T02:00:52;22.50;99.90
1568;DHT22;777;47.156;8.326;2023-08-21T02:03:19;22.40;99.90
1568;DHT22;777;47.156;8.326;2023-08-21T02:05:46;22.50;99.90
1568;DHT22;777;47.156;8.326;2023-08-21T02:08:14;22.60;99.90
1568;DHT22;777;47.156;8.326;2023-08-21T02:10:49;22.60;99.90
1568;DHT22;777;47.156;8.326;2023-08-21T02:13:16;22.60;99.90
1568;DHT22;777;47.156;8.326;2023-08-21T02:15:44;22.60;99.90
1568;DHT22;777;47.156;8.326;2023-08-21T02:18:12;22.60;99.90
1568;DHT22;777;47.156;8.326;2023-08-21T02:20:39;22.50;99.90
1568;DHT22;777;47.156;8.326;2023-08-21T02:23:06;22.50;99.90
1568;DHT22;777;47.156;8.326;2023-08-21T02:25:33;22.50;99.90
1568;DHT22;777;47.156;8.326;2023-08-21T02:28:00;22.40;99.90
1568;DHT22;777;47.156;8.326;2023-08-21T02:30:28;22.50;99.90
1568;DHT22;777;47.156;8.326;2023-08-21T02:32:58;22.50;99.90
1568;DHT22;777;47.156;8.326;2023-08-21T02:35:25;22.40;99.90
1568;DHT22;777;47.156;8.326;2023-08-21T02:37:52;22.30;99.90
1568;DHT22;777;47.156;8.326;2023-08-21T02:40:19;22.20;99.90
1568;DHT22;777;47.156;8.326;2023-08-21T02:42:46;22.20;99.90
1568;DHT22;777;47.156;8.326;2023-08-21T02:45:13;22.30;99.90
1568;DHT22;777;47.156;8.326;2023-08-21T02:47:41;22.20;99.90
1568;DHT22;777;47.156;8.326;2023-08-21T02:50:10;22.10;99.90
1568;DHT22;777;47.156;8.326;2023-08-21T02:52:38;22.10;99.90
1568;DHT22;777;47.156;8.326;2023-08-21T02:55:05;22.00;99.90
1568;DHT22;777;47.156;8.326;2023-08-21T02:57:33;22.10;99.90
1568;DHT22;777;47.156;8.326;2023-08-21T03:00:00;22.00;99.90
1568;DHT22;777;47.156;8.326;2023-08-21T03:02:27;22.00;99.90
1568;DHT22;777;47.156;8.326;2023-08-21T03:04:54;22.00;99.90
1568;DHT22;777;47.156;8.326;2023-08-21T03:07:22;22.00;99.90
1568;DHT22;777;47.156;8.326;2023-08-21T03:09:50;21.80;99.90
1568;DHT22;777;47.156;8.326;2023-08-21T03:12:17;21.80;99.90
1568;DHT22;777;47.156;8.326;2023-08-21T03:14:46;21.80;99.90
1568;DHT22;777;47.156;8.326;2023-08-21T03:17:13;21.90;99.90
1568;DHT22;777;47.156;8.326;2023-08-21T03:19:40;21.80;99.90
1568;DHT22;777;47.156;8.326;2023-08-21T03:22:07;21.70;99.90
1568;DHT22;777;47.156;8.326;2023-08-21T03:24:36;21.70;99.90
1568;DHT22;777;47.156;8.326;2023-08-21T03:27:03;21.80;99.90
1568;DHT22;777;47.156;8.326;2023-08-21T03:29:30;21.80;99.90
1568;DHT22;777;47.156;8.326;2023-08-21T03:31:58;21.70;99.90
1568;DHT22;777;47.156;8.326;2023-08-21T03:34:25;21.70;99.90
1568;DHT22;777;47.156;8.326;2023-08-21T03:36:57;21.70;99.90
1568;DHT22;777;47.156;8.326;2023-08-21T03:39:24;21.70;99.90
1568;DHT22;777;47.156;8.326;2023-08-21T03:41:53;21.70;99.90
1568;DHT22;777;47.156;8.326;2023-08-21T03:44:20;21.80;99.90
1568;DHT22;777;47.156;8.326;2023-08-21T03:46:47;21.80;99.90
1568;DHT22;777;47.156;8.326;2023-08-21T03:49:14;21.80;99.90
1568;DHT22;777;47.156;8.326;2023-08-21T03:51:41;21.90;99.90
1568;DHT22;777;47.156;8.326;2023-08-21T03:54:09;21.80;99.90
1568;DHT22;777;47.156;8.326;2023-08-21T03:56:36;21.80;99.90
1568;DHT22;777;47.156;8.326;2023-08-21T03:59:05;21.90;99.90
1568;DHT22;777;47.156;8.326;2023-08-21T04:01:32;21.90;99.90
1568;DHT22;777;47.156;8.326;2023-08-21T04:03:59;21.80;99.90
1568;DHT22;777;47.156;8.326;2023-08-21T04:06:26;21.90;99.90
1568;DHT22;777;47.156;8.326;2023-08-21T04:08:53;21.80;99.90
1568;DHT22;777;47.156;8.326;2023-08-21T04:11:20;21.70;99.90
1568;DHT22;777;47.156;8.326;2023-08-21T04:13:47;21.70;99.90
1568;DHT22;777;47.156;8.326;2023-08-21T04:16:16;21.60;99.90
1568;DHT22;777;47.156;8.326;2023-08-21T04:18:43;21.50;99.90
1568;DHT22;777;47.156;8.326;2023-08-21T04:21:10;21.50;99.90
1568;DHT22;777;47.156;8.326;2023-08-21T04:23:37;21.40;99.90
1568;DHT22;777;47.156;8.326;2023-08-21T04:26:04;21.50;99.90
1568;DHT22;777;47.156;8.326;2023-08-21T04:28:33;21.50;99.90
1568;DHT22;777;47.156;8.326;2023-08-21T04:31:04;21.40;99.90
1568;DHT22;777;47.156;8.326;2023-08-21T04:33:33;21.40;99.90
1568;DHT22;777;47.156;8.326;2023-08-21T04:36:00;21.40;99.90
1568;DHT22;777;47.156;8.326;2023-08-21T04:38:28;21.40;99.90
1568;DHT22;777;47.156;8.326;2023-08-21T04:40:55;21.30;99.90
1568;DHT22;777;47.156;8.326;2023-08-21T04:43:23;21.40;99.90
1568;DHT22;777;47.156;8.326;2023-08-21T04:45:51;21.40;99.90
1568;DHT22;777;47.156;8.326;2023-08-21T04:48:21;21.50;99.90
1568;DHT22;777;47.156;8.326;2023-08-21T04:50:50;21.50;99.90
1568;DHT22;777;47.156;8.326;2023-08-21T04:53:17;21.60;99.90
1568;DHT22;777;47.156;8.326;2023-08-21T04:55:44;21.60;99.90
1568;DHT22;777;47.156;8.326;2023-08-21T04:58:13;21.60;99.90
1568;DHT22;777;47.156;8.326;2023-08-21T05:00:40;21.60;99.90
1568;DHT22;777;47.156;8.326;2023-08-21T05:03:07;21.60;99.90
1568;DHT22;777;47.156;8.326;2023-08-21T05:05:35;21.60;99.90
1568;DHT22;777;47.156;8.326;2023-08-21T05:08:05;21.60;99.90
1568;DHT22;777;47.156;8.326;2023-08-21T05:10:34;21.70;99.90
1568;DHT22;777;47.156;8.326;2023-08-21T05:13:04;21.70;99.90
1568;DHT22;777;47.156;8.326;2023-08-21T05:15:31;21.80;99.90
1568;DHT22;777;47.156;8.326;2023-08-21T05:17:58;21.90;99.90
1568;DHT22;777;47.156;8.326;2023-08-21T05:20:25;22.00;99.90
1568;DHT22;777;47.156;8.326;2023-08-21T05:22:52;22.00;99.90
1568;DHT22;777;47.156;8.326;2023-08-21T05:25:20;22.20;99.90
1568;DHT22;777;47.156;8.326;2023-08-21T05:27:48;22.20;99.90
1568;DHT22;777;47.156;8.326;2023-08-21T05:30:15;22.30;99.90
1568;DHT22;777;47.156;8.326;2023-08-21T05:32:42;22.50;99.90
1568;DHT22;777;47.156;8.326;2023-08-21T05:35:09;22.50;99.90
1568;DHT22;777;47.156;8.326;2023-08-21T05:37:37;22.70;99.90
1568;DHT22;777;47.156;8.326;2023-08-21T05:40:05;22.80;99.90
1568;DHT22;777;47.156;8.326;2023-08-21T05:42:35;23.00;99.90
1568;DHT22;777;47.156;8.326;2023-08-21T05:45:03;23.10;99.90
1568;DHT22;777;47.156;8.326;2023-08-21T05:47:32;23.30;99.90
1568;DHT22;777;47.156;8.326;2023-08-21T05:49:59;23.60;99.90
1568;DHT22;777;47.156;8.326;2023-08-21T05:52:26;23.80;99.90
1568;DHT22;777;47.156;8.326;2023-08-21T05:54:53;23.80;99.90
1568;DHT22;777;47.156;8.326;2023-08-21T05:57:21;23.80;99.90
1568;DHT22;777;47.156;8.326;2023-08-21T05:59:49;23.70;99.90
1568;DHT22;777;47.156;8.326;2023-08-21T06:02:16;23.80;99.90
1568;DHT22;777;47.156;8.326;2023-08-21T06:04:44;23.70;99.90
1568;DHT22;777;47.156;8.326;2023-08-21T06:07:11;23.80;99.90
1568;DHT22;777;47.156;8.326;2023-08-21T06:09:38;23.90;99.90
1568;DHT22;777;47.156;8.326;2023-08-21T06:12:06;24.40;99.90
1568;DHT22;777;47.156;8.326;2023-08-21T06:14:34;24.80;99.90
1568;DHT22;777;47.156;8.326;2023-08-21T06:17:04;25.10;99.90
1568;DHT22;777;47.156;8.326;2023-08-21T06:19:32;25.30;99.90
1568;DHT22;777;47.156;8.326;2023-08-21T06:21:59;25.50;99.90
1568;DHT22;777;47.156;8.326;2023-08-21T06:24:26;25.60;99.90
1568;DHT22;777;47.156;8.326;2023-08-21T06:26:58;25.80;99.90
1568;DHT22;777;47.156;8.326;2023-08-21T06:29:25;26.00;99.90
1568;DHT22;777;47.156;8.326;2023-08-21T06:31:52;26.10;99.90
1568;DHT22;777;47.156;8.326;2023-08-21T06:34:22;26.30;99.90
1568;DHT22;777;47.156;8.326;2023-08-21T06:36:50;26.60;99.90
1568;DHT22;777;47.156;8.326;2023-08-21T06:39:17;26.80;99.90
1568;DHT22;777;47.156;8.326;2023-08-21T06:41:44;27.20;99.90
1568;DHT22;777;47.156;8.326;2023-08-21T06:44:17;27.40;99.90
1568;DHT22;777;47.156;8.326;2023-08-21T06:46:44;27.70;99.90
1568;DHT22;777;47.156;8.326;2023-08-21T06:49:11;27.80;99.90
1568;DHT22;777;47.156;8.326;2023-08-21T06:51:39;28.20;99.90
1568;DHT22;777;47.156;8.326;2023-08-21T06:54:06;29.00;99.90
1568;DHT22;777;47.156;8.326;2023-08-21T06:56:33;29.80;99.90
1568;DHT22;777;47.156;8.326;2023-08-21T06:59:00;30.60;99.90
1568;DHT22;777;47.156;8.326;2023-08-21T07:01:28;31.40;99.90
1568;DHT22;777;47.156;8.326;2023-08-21T07:03:55;32.10;99.90
1568;DHT22;777;47.156;8.326;2023-08-21T07:06:22;32.60;99.90
1568;DHT22;777;47.156;8.326;2023-08-21T07:08:50;33.10;99.90
1568;DHT22;777;47.156;8.326;2023-08-21T07:11:17;33.60;99.90
1568;DHT22;777;47.156;8.326;2023-08-21T07:13:44;33.80;99.90
1568;DHT22;777;47.156;8.326;2023-08-21T07:16:12;34.10;99.90
1568;DHT22;777;47.156;8.326;2023-08-21T07:18:39;33.80;99.90
1568;DHT22;777;47.156;8.326;2023-08-21T07:21:06;33.30;99.90
1568;DHT22;777;47.156;8.326;2023-08-21T07:23:33;32.70;99.90
1568;DHT22;777;47.156;8.326;2023-08-21T07:26:02;32.30;99.90
1568;DHT22;777;47.156;8.326;2023-08-21T07:28:30;32.10;99.90
1568;DHT22;777;47.156;8.326;2023-08-21T07:30:58;32.10;99.90
1568;DHT22;777;47.156;8.326;2023-08-21T07:33:26;32.10;99.90
1568;DHT22;777;47.156;8.326;2023-08-21T07:36:01;32.00;99.90
1568;DHT22;777;47.156;8.326;2023-08-21T07:38:28;32.10;99.90
1568;DHT22;777;47.156;8.326;2023-08-21T07:41:04;32.20;99.90
1568;DHT22;777;47.156;8.326;2023-08-21T07:43:31;32.00;99.90
1568;DHT22;777;47.156;8.326;2023-08-21T07:46:01;31.30;99.90
1568;DHT22;777;47.156;8.326;2023-08-21T07:48:29;30.20;99.90
1568;DHT22;777;47.156;8.326;2023-08-21T07:50:56;30.30;99.90
1568;DHT22;777;47.156;8.326;2023-08-21T07:53:23;30.10;99.90
1568;DHT22;777;47.156;8.326;2023-08-21T07:55:50;30.20;99.90
1568;DHT22;777;47.156;8.326;2023-08-21T07:58:19;30.10;99.90
1568;DHT22;777;47.156;8.326;2023-08-21T08:00:46;29.70;99.90
1568;DHT22;777;47.156;8.326;2023-08-21T08:03:14;30.20;99.90
1568;DHT22;777;47.156;8.326;2023-08-21T08:05:41;30.10;99.90
1568;DHT22;777;47.156;8.326;2023-08-21T08:08:09;30.10;99.90
1568;DHT22;777;47.156;8.326;2023-08-21T08:10:37;30.20;99.90
1568;DHT22;777;47.156;8.326;2023-08-21T08:13:05;30.00;99.90
1568;DHT22;777;47.156;8.326;2023-08-21T08:15:34;30.00;99.90
1568;DHT22;777;47.156;8.326;2023-08-21T08:18:01;30.00;99.90
1568;DHT22;777;47.156;8.326;2023-08-21T08:20:28;29.80;99.90
1568;DHT22;777;47.156;8.326;2023-08-21T08:22:56;29.60;99.90
1568;DHT22;777;47.156;8.326;2023-08-21T08:25:23;29.40;99.90
1568;DHT22;777;47.156;8.326;2023-08-21T08:27:51;29.40;99.90
1568;DHT22;777;47.156;8.326;2023-08-21T08:30:18;29.70;99.90
1568;DHT22;777;47.156;8.326;2023-08-21T08:32:47;29.70;99.90
1568;DHT22;777;47.156;8.326;2023-08-21T08:35:14;29.60;99.90
1568;DHT22;777;47.156;8.326;2023-08-21T08:37:42;29.60;99.90
1568;DHT22;777;47.156;8.326;2023-08-21T08:40:10;29.50;99.90
1568;DHT22;777;47.156;8.326;2023-08-21T08:42:39;29.10;99.90
1568;DHT22;777;47.156;8.326;2023-08-21T08:45:07;29.30;99.90
1568;DHT22;777;47.156;8.326;2023-08-21T08:47:35;29.30;99.90
1568;DHT22;777;47.156;8.326;2023-08-21T08:50:05;29.40;99.90
1568;DHT22;777;47.156;8.326;2023-08-21T08:52:35;29.40;99.90
1568;DHT22;777;47.156;8.326;2023-08-21T08:55:03;29.60;99.90
1568;DHT22;777;47.156;8.326;2023-08-21T08:57:32;29.90;99.90
1568;DHT22;777;47.156;8.326;2023-08-21T09:00:01;30.00;99.90
1568;DHT22;777;47.156;8.326;2023-08-21T09:02:29;30.30;99.90
1568;DHT22;777;47.156;8.326;2023-08-21T09:04:56;30.80;99.90
1568;DHT22;777;47.156;8.326;2023-08-21T09:07:25;31.10;99.90
1568;DHT22;777;47.156;8.326;2023-08-21T09:09:52;31.30;99.90
1568;DHT22;777;47.156;8.326;2023-08-21T09:12:20;31.50;99.90
1568;DHT22;777;47.156;8.326;2023-08-21T09:14:47;31.40;99.90
1568;DHT22;777;47.156;8.326;2023-08-21T09:17:15;31.20;99.90
1568;DHT22;777;47.156;8.326;2023-08-21T09:19:42;30.90;99.90
1568;DHT22;777;47.156;8.326;2023-08-21T09:22:11;31.00;99.90
1568;DHT22;777;47.156;8.326;2023-08-21T09:24:40;30.60;99.90
1568;DHT22;777;47.156;8.326;2023-08-21T09:27:13;30.30;99.90
1568;DHT22;777;47.156;8.326;2023-08-21T09:29:42;30.50;99.90
1568;DHT22;777;47.156;8.326;2023-08-21T09:32:09;30.80;99.90
1568;DHT22;777;47.156;8.326;2023-08-21T09:34:37;31.20;99.90
1568;DHT22;777;47.156;8.326;2023-08-21T09:37:08;31.50;99.90
1568;DHT22;777;47.156;8.326;2023-08-21T09:39:37;31.80;99.90
1568;DHT22;777;47.156;8.326;2023-08-21T09:42:08;31.80;99.90
1568;DHT22;777;47.156;8.326;2023-08-21T09:44:37;31.90;99.90
1568;DHT22;777;47.156;8.326;2023-08-21T09:47:07;31.90;99.90
1568;DHT22;777;47.156;8.326;2023-08-21T09:49:35;31.80;99.90
1568;DHT22;777;47.156;8.326;2023-08-21T09:52:05;31.60;99.90
1568;DHT22;777;47.156;8.326;2023-08-21T09:54:33;31.30;99.90
1568;DHT22;777;47.156;8.326;2023-08-21T09:57:02;31.40;99.90
1568;DHT22;777;47.156;8.326;2023-08-21T09:59:31;31.80;99.90
1568;DHT22;777;47.156;8.326;2023-08-21T10:01:59;32.10;99.90
1568;DHT22;777;47.156;8.326;2023-08-21T10:04:28;32.30;99.90
1568;DHT22;777;47.156;8.326;2023-08-21T10:06:56;32.20;99.90
1568;DHT22;777;47.156;8.326;2023-08-21T10:09:27;32.20;99.90
1568;DHT22;777;47.156;8.326;2023-08-21T10:11:56;32.20;99.90
1568;DHT22;777;47.156;8.326;2023-08-21T10:14:24;32.40;99.90
1568;DHT22;777;47.156;8.326;2023-08-21T10:16:53;32.30;99.90
1568;DHT22;777;47.156;8.326;2023-08-21T10:19:21;32.30;99.90
1568;DHT22;777;47.156;8.326;2023-08-21T10:21:48;32.40;99.90
1568;DHT22;777;47.156;8.326;2023-08-21T10:24:26;32.50;99.90
1568;DHT22;777;47.156;8.326;2023-08-21T10:26:58;32.30;99.90
1568;DHT22;777;47.156;8.326;2023-08-21T10:29:26;32.30;99.90
1568;DHT22;777;47.156;8.326;2023-08-21T10:32:01;32.30;99.90
1568;DHT22;777;47.156;8.326;2023-08-21T10:34:33;32.40;99.90
1568;DHT22;777;47.156;8.326;2023-08-21T10:37:06;32.50;99.90
1568;DHT22;777;47.156;8.326;2023-08-21T10:39:36;32.70;99.90
1568;DHT22;777;47.156;8.326;2023-08-21T10:42:07;32.90;99.90
1568;DHT22;777;47.156;8.326;2023-08-21T10:44:37;33.00;99.90
1568;DHT22;777;47.156;8.326;2023-08-21T10:47:17;33.10;99.90
1568;DHT22;777;47.156;8.326;2023-08-21T10:49:45;33.10;99.90
1568;DHT22;777;47.156;8.326;2023-08-21T10:52:14;33.00;99.90
1568;DHT22;777;47.156;8.326;2023-08-21T10:54:46;32.90;99.90
1568;DHT22;777;47.156;8.326;2023-08-21T10:57:13;32.90;99.90
1568;DHT22;777;47.156;8.326;2023-08-21T10:59:49;33.00;99.90
1568;DHT22;777;47.156;8.326;2023-08-21T11:02:18;33.00;99.90
1568;DHT22;777;47.156;8.326;2023-08-21T11:04:46;33.10;99.90
1568;DHT22;777;47.156;8.326;2023-08-21T11:07:13;33.00;99.90
1568;DHT22;777;47.156;8.326;2023-08-21T11:09:40;32.40;99.90
1568;DHT22;777;47.156;8.326;2023-08-21T11:12:09;32.50;99.90
1568;DHT22;777;47.156;8.326;2023-08-21T11:14:37;32.70;99.90
1568;DHT22;777;47.156;8.326;2023-08-21T11:17:08;32.90;99.90
1568;DHT22;777;47.156;8.326;2023-08-21T11:19:37;32.80;99.90
1568;DHT22;777;47.156;8.326;2023-08-21T11:22:05;32.60;99.90
1568;DHT22;777;47.156;8.326;2023-08-21T11:24:43;32.50;99.90
1568;DHT22;777;47.156;8.326;2023-08-21T11:27:12;32.20;99.90
1568;DHT22;777;47.156;8.326;2023-08-21T11:29:41;32.30;99.90
1568;DHT22;777;47.156;8.326;2023-08-21T11:32:15;32.40;99.90
1568;DHT22;777;47.156;8.326;2023-08-21T11:34:48;32.60;99.90
1568;DHT22;777;47.156;8.326;2023-08-21T11:37:16;32.60;99.90
1568;DHT22;777;47.156;8.326;2023-08-21T11:39:45;32.60;99.90
1568;DHT22;777;47.156;8.326;2023-08-21T11:42:13;32.50;99.90
1568;DHT22;777;47.156;8.326;2023-08-21T11:44:42;32.90;99.90
1568;DHT22;777;47.156;8.326;2023-08-21T11:47:09;33.10;99.90
1568;DHT22;777;47.156;8.326;2023-08-21T11:49:39;33.30;99.90
1568;DHT22;777;47.156;8.326;2023-08-21T11:52:10;33.60;99.90
1568;DHT22;777;47.156;8.326;2023-08-21T11:54:39;33.90;99.90
1568;DHT22;777;47.156;8.326;2023-08-21T11:57:12;34.30;99.90
1568;DHT22;777;47.156;8.326;2023-08-21T11:59:40;35.10;99.90
1568;DHT22;777;47.156;8.326;2023-08-21T12:02:13;36.00;99.90
1568;DHT22;777;47.156;8.326;2023-08-21T12:04:40;36.60;99.90
1568;DHT22;777;47.156;8.326;2023-08-21T12:07:09;35.80;99.90
1568;DHT22;777;47.156;8.326;2023-08-21T12:09:36;35.30;99.90
1568;DHT22;777;47.156;8.326;2023-08-21T12:12:04;35.70;99.90
1568;DHT22;777;47.156;8.326;2023-08-21T12:14:31;36.50;99.90
1568;DHT22;777;47.156;8.326;2023-08-21T12:16:58;37.30;99.90
1568;DHT22;777;47.156;8.326;2023-08-21T12:19:25;36.80;99.90
1568;DHT22;777;47.156;8.326;2023-08-21T12:21:53;37.60;99.90
1568;DHT22;777;47.156;8.326;2023-08-21T12:24:21;38.30;99.90
1568;DHT22;777;47.156;8.326;2023-08-21T12:26:48;37.30;99.90
1568;DHT22;777;47.156;8.326;2023-08-21T12:29:15;38.20;99.90
1568;DHT22;777;47.156;8.326;2023-08-21T12:31:42;39.40;99.90
1568;DHT22;777;47.156;8.326;2023-08-21T12:34:10;40.10;99.90
1568;DHT22;777;47.156;8.326;2023-08-21T12:36:37;39.90;99.90
1568;DHT22;777;47.156;8.326;2023-08-21T12:39:04;39.20;99.90
1568;DHT22;777;47.156;8.326;2023-08-21T12:41:33;39.90;99.90
1568;DHT22;777;47.156;8.326;2023-08-21T12:44:00;40.30;99.90
1568;DHT22;777;47.156;8.326;2023-08-21T12:46:28;40.90;99.90
1568;DHT22;777;47.156;8.326;2023-08-21T12:48:57;40.90;99.90
1568;DHT22;777;47.156;8.326;2023-08-21T12:51:25;40.40;99.90
1568;DHT22;777;47.156;8.326;2023-08-21T12:53:52;40.60;99.90
1568;DHT22;777;47.156;8.326;2023-08-21T12:56:19;41.40;99.90
1568;DHT22;777;47.156;8.326;2023-08-21T12:58:47;42.10;99.90
1568;DHT22;777;47.156;8.326;2023-08-21T13:01:15;42.40;99.90
1568;DHT22;777;47.156;8.326;2023-08-21T13:03:44;41.40;99.90
1568;DHT22;777;47.156;8.326;2023-08-21T13:06:12;40.80;99.90
1568;DHT22;777;47.156;8.326;2023-08-21T13:08:39;40.00;99.90
1568;DHT22;777;47.156;8.326;2023-08-21T13:11:07;40.40;99.90
1568;DHT22;777;47.156;8.326;2023-08-21T13:13:35;41.20;99.90
1568;DHT22;777;47.156;8.326;2023-08-21T13:16:04;42.00;99.90
1568;DHT22;777;47.156;8.326;2023-08-21T13:18:32;43.70;99.50
1568;DHT22;777;47.156;8.326;2023-08-21T13:20:59;44.40;96.70
1568;DHT22;777;47.156;8.326;2023-08-21T13:23:29;44.80;95.50
1568;DHT22;777;47.156;8.326;2023-08-21T13:25:56;45.60;93.90
1568;DHT22;777;47.156;8.326;2023-08-21T13:28:24;45.30;92.70
1568;DHT22;777;47.156;8.326;2023-08-21T13:30:51;46.20;92.50
1568;DHT22;777;47.156;8.326;2023-08-21T13:33:20;46.00;90.90
1568;DHT22;777;47.156;8.326;2023-08-21T13:35:47;45.50;90.60
1568;DHT22;777;47.156;8.326;2023-08-21T13:38:15;45.50;90.30
1568;DHT22;777;47.156;8.326;2023-08-21T13:40:42;44.90;88.50
1568;DHT22;777;47.156;8.326;2023-08-21T13:43:09;44.10;89.30
1568;DHT22;777;47.156;8.326;2023-08-21T13:45:38;44.30;90.30
1568;DHT22;777;47.156;8.326;2023-08-21T13:48:07;44.20;89.20
1568;DHT22;777;47.156;8.326;2023-08-21T13:50:35;43.10;90.00
1568;DHT22;777;47.156;8.326;2023-08-21T13:53:03;43.80;89.20
1568;DHT22;777;47.156;8.326;2023-08-21T13:55:32;44.80;88.60
1568;DHT22;777;47.156;8.326;2023-08-21T13:57:59;45.90;87.40
1568;DHT22;777;47.156;8.326;2023-08-21T14:00:26;46.10;85.70
1568;DHT22;777;47.156;8.326;2023-08-21T14:02:54;47.30;84.50
1568;DHT22;777;47.156;8.326;2023-08-21T14:05:22;47.20;82.50
1568;DHT22;777;47.156;8.326;2023-08-21T14:07:57;47.10;80.20
1568;DHT22;777;47.156;8.326;2023-08-21T14:10:24;47.00;79.80
1568;DHT22;777;47.156;8.326;2023-08-21T14:12:51;47.30;80.10
1568;DHT22;777;47.156;8.326;2023-08-21T14:15:18;48.10;78.40
1568;DHT22;777;47.156;8.326;2023-08-21T14:17:45;47.70;76.60
1568;DHT22;777;47.156;8.326;2023-08-21T14:20:15;46.80;76.30
1568;DHT22;777;47.156;8.326;2023-08-21T14:22:42;46.10;77.90
1568;DHT22;777;47.156;8.326;2023-08-21T14:25:11;44.40;78.60
1568;DHT22;777;47.156;8.326;2023-08-21T14:27:38;43.80;81.80
1568;DHT22;777;47.156;8.326;2023-08-21T14:30:06;45.00;83.20
1568;DHT22;777;47.156;8.326;2023-08-21T14:32:34;43.70;84.70
1568;DHT22;777;47.156;8.326;2023-08-21T14:35:03;42.80;87.10
1568;DHT22;777;47.156;8.326;2023-08-21T14:37:39;42.10;87.90
1568;DHT22;777;47.156;8.326;2023-08-21T14:40:07;41.00;88.20
1568;DHT22;777;47.156;8.326;2023-08-21T14:42:36;40.60;90.10
1568;DHT22;777;47.156;8.326;2023-08-21T14:45:05;41.50;90.10
1568;DHT22;777;47.156;8.326;2023-08-21T14:47:32;41.90;88.40
1568;DHT22;777;47.156;8.326;2023-08-21T14:49:59;41.90;87.80
1568;DHT22;777;47.156;8.326;2023-08-21T14:52:26;42.10;88.00
1568;DHT22;777;47.156;8.326;2023-08-21T14:54:53;41.90;87.60
1568;DHT22;777;47.156;8.326;2023-08-21T14:57:20;42.10;85.90
1568;DHT22;777;47.156;8.326;2023-08-21T14:59:49;41.90;85.80
1568;DHT22;777;47.156;8.326;2023-08-21T15:02:16;41.60;84.80
1568;DHT22;777;47.156;8.326;2023-08-21T15:04:43;41.60;84.80
1568;DHT22;777;47.156;8.326;2023-08-21T15:07:10;42.60;84.40
1568;DHT22;777;47.156;8.326;2023-08-21T15:09:37;43.00;84.70
1568;DHT22;777;47.156;8.326;2023-08-21T15:12:05;43.80;82.10
1568;DHT22;777;47.156;8.326;2023-08-21T15:14:32;43.60;80.40
1568;DHT22;777;47.156;8.326;2023-08-21T15:17:01;43.90;80.20
1568;DHT22;777;47.156;8.326;2023-08-21T15:19:28;43.90;82.30
1568;DHT22;777;47.156;8.326;2023-08-21T15:21:55;44.20;82.40
1568;DHT22;777;47.156;8.326;2023-08-21T15:24:22;43.80;81.60
1568;DHT22;777;47.156;8.326;2023-08-21T15:26:49;43.90;82.50
1568;DHT22;777;47.156;8.326;2023-08-21T15:29:16;44.40;81.70
1568;DHT22;777;47.156;8.326;2023-08-21T15:31:43;44.90;80.90
1568;DHT22;777;47.156;8.326;2023-08-21T15:34:11;45.10;80.30
1568;DHT22;777;47.156;8.326;2023-08-21T15:36:38;45.40;79.90
1568;DHT22;777;47.156;8.326;2023-08-21T15:39:05;46.00;77.10
1568;DHT22;777;47.156;8.326;2023-08-21T15:41:33;45.60;77.00
1568;DHT22;777;47.156;8.326;2023-08-21T15:44:00;45.10;78.50
1568;DHT22;777;47.156;8.326;2023-08-21T15:46:27;45.00;79.00
1568;DHT22;777;47.156;8.326;2023-08-21T15:48:55;45.00;78.90
1568;DHT22;777;47.156;8.326;2023-08-21T15:51:23;44.60;78.80
1568;DHT22;777;47.156;8.326;2023-08-21T15:53:50;44.10;79.70
1568;DHT22;777;47.156;8.326;2023-08-21T15:56:17;44.60;78.80
1568;DHT22;777;47.156;8.326;2023-08-21T15:58:44;44.20;77.80
1568;DHT22;777;47.156;8.326;2023-08-21T16:01:12;42.00;80.50
1568;DHT22;777;47.156;8.326;2023-08-21T16:03:39;42.30;81.40
1568;DHT22;777;47.156;8.326;2023-08-21T16:06:06;43.00;81.80
1568;DHT22;777;47.156;8.326;2023-08-21T16:08:34;43.30;81.70
1568;DHT22;777;47.156;8.326;2023-08-21T16:11:01;43.30;81.10
1568;DHT22;777;47.156;8.326;2023-08-21T16:13:29;42.90;81.00
1568;DHT22;777;47.156;8.326;2023-08-21T16:15:56;42.90;81.60
1568;DHT22;777;47.156;8.326;2023-08-21T16:18:23;42.20;80.90
1568;DHT22;777;47.156;8.326;2023-08-21T16:20:51;41.50;82.30
1568;DHT22;777;47.156;8.326;2023-08-21T16:23:18;41.00;84.50